Time;durP1;ratioP1;P1;durP2;ratioP2;P2;SDS_P1;SDS_P2;PMS_P1;PMS_P2;Temp;Humidity;BMP_temperature;BMP_pressure;BME280_temperature;BME280_humidity;BME280_pressure;Samples;Min_cycle;Max_cycle;Signal;HPM_P1;HPM_P2
2022/12/06 13:10:34;;;;;;;49.05;23.42;;;;;;;;;;5115408;27;20368;-59
2022/12/06 13:13:02;;;;;;;45.83;21.63;;;;;;;;;;5115369;28;20099;-60
2022/12/06 13:15:34;;;;;;;47.22;21.75;;;;;;;;;;5115662;28;20016;-60
2022/12/06 13:18:06;;;;;;;48.25;21.70;;;;;;;;;;5115322;28;20103;-60
2022/12/06 13:20:34;;;;;;;42.58;19.15;;;;;;;;;;5115122;28;20030;-58
2022/12/06 13:23:02;;;;;;;47.28;19.58;;;;;;;;;;5115038;28;20055;-59
2022/12/06 13:25:28;;;;;;;46.40;20.48;;;;;;;;;;5115021;28;20066;-58
2022/12/06 13:27:57;;;;;;;42.58;20.10;;;;;;;;;;5115105;28;20102;-57
2022/12/06 13:30:25;;;;;;;41.97;20.02;;;;;;;;;;5113492;28;20077;-58
2022/12/06 13:33:00;;;;;;;54.90;35.42;;;;;;;;;;5115282;28;20150;-58
2022/12/06 13:35:26;;;;;;;118.10;103.40;;;;;;;;;;5115008;28;20016;-57
2022/12/06 13:38:00;;;;;;;135.57;107.68;;;;;;;;;;5114993;28;20035;-57
2022/12/06 13:40:32;;;;;;;79.82;67.90;;;;;;;;;;5114754;28;20050;-58
2022/12/06 13:42:59;;;;;;;44.30;18.05;;;;;;;;;;5114474;28;20449;-57
2022/12/06 13:48:24;;;;;;;175.43;116.55;;;;;;;;;;5115817;27;20377;-59
2022/12/06 13:50:58;;;;;;;138.52;93.68;;;;;;;;;;5115048;28;20451;-58
2022/12/06 13:53:26;;;;;;;47.60;22.88;;;;;;;;;;5115157;28;20042;-59
2022/12/06 13:55:59;;;;;;;40.45;18.63;;;;;;;;;;5114873;28;20368;-59
2022/12/06 13:58:25;;;;;;;35.75;17.30;;;;;;;;;;5114831;28;20035;-59
2022/12/06 14:00:52;;;;;;;33.97;17.17;;;;;;;;;;5115137;28;20030;-58
2022/12/06 14:03:18;;;;;;;37.78;17.55;;;;;;;;;;5114968;28;20137;-59
2022/12/06 14:06:03;;;;;;;34.90;18.30;;;;;;;;;;5115256;28;20024;-59
2022/12/06 14:08:29;;;;;;;;;;;;;;;;;;5115244;28;19908;-58
2022/12/06 14:10:55;;;;;;;;;;;;;;;;;;5115623;28;19908;-57
2022/12/06 14:13:21;;;;;;;;;;;;;;;;;;5115281;28;20387;-57
2022/12/06 14:15:47;;;;;;;;;;;;;;;;;;5114925;28;19911;-57
2022/12/06 14:18:13;;;;;;;;;;;;;;;;;;5115135;28;19955;-56
2022/12/06 14:20:39;;;;;;;;;;;;;;;;;;5115844;28;20325;-58
2022/12/06 14:23:05;;;;;;;;;;;;;;;;;;5115084;28;19915;-55
2022/12/06 14:25:31;;;;;;;;;;;;;;;;;;5115285;28;19908;-57
2022/12/06 14:27:57;;;;;;;;;;;;;;;;;;5114869;28;19908;-57
2022/12/06 14:30:23;;;;;;;;;;;;;;;;;;5115068;28;19919;-57
2022/12/06 14:32:49;;;;;;;;;;;;;;;;;;5115309;28;20371;-57
2022/12/06 14:35:15;;;;;;;;;;;;;;;;;;5114794;28;19912;-56
2022/12/06 14:37:40;;;;;;;;;;;;;;;;;;5115021;28;19919;-55
2022/12/06 14:40:06;;;;;;;;;;;;;;;;;;5114676;28;19908;-55
2022/12/06 14:45:17;;;;;;;;;;;;;;;;;;5114799;28;19915;-57
2022/12/06 14:47:43;;;;;;;;;;;;;;;;;;5114169;28;20399;-57
2022/12/06 14:50:24;;;;;;;;;;;;;;;;;;5114707;28;20367;-56
2022/12/06 14:52:50;;;;;;;;;;;;;;;;;;5114909;28;19915;-56
2022/12/06 14:55:16;;;;;;;;;;;;;;;;;;5114743;28;19908;-57
2022/12/06 14:57:42;;;;;;;;;;;;;;;;;;5110357;28;20540;-57
2022/12/06 15:00:08;;;;;;;;;;;;;;;;;;5101068;28;19916;-57
2022/12/06 15:02:34;;;;;;;;;;;;;;;;;;5100912;28;20003;-56
2022/12/06 15:05:00;;;;;;;;;;;;;;;;;;5100871;28;19995;-57
2022/12/06 15:07:26;;;;;;;;;;;;;;;;;;5100466;28;19908;-58
2022/12/06 15:09:52;;;;;;;;;;;;;;;;;;5100896;28;19904;-57
2022/12/06 15:15:03;;;;;;;;;;;;;;;;;;5100649;28;19915;-57
2022/12/06 15:17:28;;;;;;;;;;;8.80;95.20;;;;;;5100757;28;19912;-57
2022/12/06 15:19:54;;;;;;;;;;;8.50;82.90;;;;;;5100113;28;19932;-57
2022/12/06 15:22:25;;;;;;;;;;;8.40;80.90;;;;;;5100473;28;19915;-57
2022/12/06 15:24:53;;;;;;;;;;;8.30;80.70;;;;;;5100255;28;19927;-57
2022/12/06 15:27:20;;;;;;;;;;;8.30;83.60;;;;;;5100109;28;19916;-57
2022/12/06 15:29:46;;;;;;;;;;;8.20;81.60;;;;;;5100414;28;19908;-56
2022/12/06 15:32:13;;;;;;;;;;;8.20;82.20;;;;;;5100613;28;20029;-57
2022/12/06 15:34:39;;;;;;;;;;;8.10;81.70;;;;;;5100102;28;19915;-57
2022/12/06 15:37:05;;;;;;;;;;;8.00;85.30;;;;;;5100575;28;19912;-57
2022/12/06 15:39:30;;;;;;;;;;;7.90;83.60;;;;;;5100216;28;20261;-57
2022/12/06 15:41:56;;;;;;;;;;;7.90;82.70;;;;;;5100144;28;19908;-58
2022/12/06 15:44:24;;;;;;;;;;;7.80;82.20;;;;;;5099968;28;19958;-54
2022/12/06 15:46:50;;;;;;;;;;;7.70;82.30;;;;;;5099574;28;19924;-51
2022/12/06 15:49:17;;;;;;;;;;;7.60;82.80;;;;;;5100082;28;19957;-50
2022/12/06 15:51:43;;;;;;;;;;;7.60;82.10;;;;;;5099824;28;19912;-54
2022/12/06 15:54:15;;;;;;;;;;;7.50;83.70;;;;;;5099947;28;19914;-51
2022/12/06 15:56:40;;;;;;;;;;;7.40;83.50;;;;;;5099457;28;20268;-54
2022/12/06 15:59:06;;;;;;;;;;;7.30;83.40;;;;;;5099859;28;19912;-54
2022/12/06 16:01:33;;;;;;;;;;;7.20;82.60;;;;;;5099860;28;19930;-52
2022/12/06 16:03:59;;;;;;;;;;;7.10;83.40;;;;;;5099698;28;19939;-51
2022/12/06 16:06:25;;;;;;;;;;;7.00;84.50;;;;;;5099748;28;19916;-52
2022/12/06 16:08:51;;;;;;;;;;;6.90;84.00;;;;;;5099201;28;19915;-53
2022/12/06 16:11:18;;;;;;;;;;;6.90;84.40;;;;;;5099045;28;19947;-53
2022/12/06 16:13:44;;;;;;;;;;;6.80;84.60;;;;;;5099289;28;19908;-52
2022/12/06 16:16:10;;;;;;;;;;;6.70;84.70;;;;;;5099566;28;19960;-53
2022/12/06 16:18:35;;;;;;;;;;;6.60;86.70;;;;;;5099225;28;20003;-51
2022/12/06 16:21:01;;;;;;;;;;;6.50;84.90;;;;;;5099681;28;19916;-52
2022/12/06 16:26:12;;;;;;;;;;;6.30;84.70;;;;;;5099028;28;20375;-55
2022/12/06 16:28:37;;;;;;;;;;;6.20;85.70;;;;;;5099258;28;19908;-57
2022/12/06 16:31:03;;;;;;;;;;;6.10;86.60;;;;;;5099310;28;19950;-54
2022/12/06 16:33:29;;;;;;;;;;;6.00;85.60;;;;;;5098918;28;19991;-55
2022/12/06 16:36:00;;;;;;;;;;;5.90;88.80;;;;;;5099118;28;19929;-53
2022/12/06 16:38:26;;;;;;;;;;;5.80;87.40;;;;;;5099019;28;20395;-54
2022/12/06 16:40:51;;;;;;;;;;;5.70;87.00;;;;;;5098637;28;20040;-52
2022/12/06 16:43:17;;;;;;;;;;;5.70;87.10;;;;;;5098789;28;19908;-55
2022/12/06 16:45:44;;;;;;;;;;;5.60;88.70;;;;;;5098812;28;19956;-55
2022/12/06 16:48:17;;;;;;;;;;;5.60;88.60;;;;;;5099060;28;19969;-55
2022/12/06 16:50:44;;;;;;;;;;;5.50;89.20;;;;;;5098583;28;19919;-54
2022/12/06 16:53:10;;;;;;;;;;;5.40;88.80;;;;;;5098617;28;19908;-55
2022/12/06 16:55:36;;;;;;;;;;;5.40;87.70;;;;;;5098500;28;19915;-55
2022/12/06 16:58:02;;;;;;;;;;;5.30;88.50;;;;;;5098962;28;19983;-55
2022/12/06 17:00:29;;;;;;;;;;;5.20;88.60;;;;;;5098481;28;20395;-56
2022/12/06 17:02:54;;;;;;;;;;;5.20;88.30;;;;;;5098464;28;20003;-54
2022/12/06 17:05:24;;;;;;;;;;;5.10;88.80;;;;;;5098776;28;19944;-51
2022/12/06 17:07:50;;;;;;;;;;;5.00;88.40;;;;;;5098598;28;19971;-55
2022/12/06 17:10:17;;;;;;;;;;;5.00;90.10;;;;;;5098592;28;20397;-54
2022/12/06 17:12:43;;;;;;;;;;;4.90;89.60;;;;;;5098358;28;19927;-55
2022/12/06 17:15:13;;;;;;;;;;;4.90;89.50;;;;;;5098383;28;20007;-51
2022/12/06 17:17:38;;;;;;;;;;;4.90;90.30;;;;;;5098326;28;19912;-54
2022/12/06 17:20:06;;;;;;;;;;;4.80;90.10;;;;;;5098206;28;19914;-51
2022/12/06 17:22:33;;;;;;;;;;;4.80;90.20;;;;;;5097832;28;20382;-56
2022/12/06 17:24:59;;;;;;;;;;;4.70;90.80;;;;;;5097956;28;20252;-55
2022/12/06 17:27:25;;;;;;;;;;;4.70;90.90;;;;;;5098097;28;19914;-53
2022/12/06 17:29:50;;;;;;;;;;;4.70;91.10;;;;;;5098511;28;19915;-54
2022/12/06 17:32:17;;;;;;;;;;;4.60;90.70;;;;;;5098205;28;19916;-53
2022/12/06 17:34:42;;;;;;;;;;;4.60;90.90;;;;;;5098014;28;20125;-51
2022/12/06 17:37:08;;;;;;;;;;;4.50;90.80;;;;;;5098022;28;19943;-56
2022/12/06 17:39:34;;;;;;;;;;;4.50;91.00;;;;;;5098150;28;20003;-54
2022/12/06 17:44:44;;;;;;;;;;;4.40;90.30;;;;;;5097825;28;20287;-57
2022/12/06 17:47:11;;;;;;;;;;;4.30;90.40;;;;;;5097514;28;19924;-53
2022/12/06 17:49:37;;;;;;;;;;;4.30;90.70;;;;;;5097569;28;20333;-56
2022/12/06 17:52:03;;;;;;;;;;;4.30;90.90;;;;;;5097892;28;19912;-53
2022/12/06 17:54:29;;;;;;;;;;;2.90;91.70;;;;;;5097592;28;19915;-54
2022/12/06 17:56:55;;;;;;;;;;;4.20;91.60;;;;;;5097436;28;19912;-52
2022/12/06 17:59:22;;;;;;;;;;;4.10;91.70;;;;;;5097890;28;20007;-56
2022/12/06 18:01:48;;;;;;;;;;;4.10;91.40;;;;;;5098218;28;19916;-53
2022/12/06 18:04:14;;;;;;;;;;;4.10;91.30;;;;;;5097939;28;19915;-55
2022/12/06 18:06:41;;;;;;;;;;;4.00;91.80;;;;;;5097906;28;19908;-52
2022/12/06 18:09:08;;;;;;;;;;;4.00;92.00;;;;;;5097754;28;19908;-56
2022/12/06 18:11:35;;;;;;;;;;;4.00;91.60;;;;;;5097931;28;19915;-54
2022/12/06 18:14:02;;;;;;;;;;;3.90;92.00;;;;;;5097728;28;19908;-55
2022/12/06 18:16:35;;;;;;;;;;;3.90;91.70;;;;;;5097632;28;19912;-54
2022/12/06 18:19:02;;;;;;;;;;;3.80;92.30;;;;;;5097574;28;19908;-56
2022/12/06 18:21:28;;;;;;;;;;;3.80;92.20;;;;;;5097584;28;19908;-54
2022/12/06 18:23:54;;;;;;;;;;;3.80;92.10;;;;;;5097715;28;19908;-56
2022/12/06 18:26:20;;;;;;;;;;;3.80;92.90;;;;;;5097259;28;19909;-55
2022/12/06 18:28:53;;;;;;;;;;;3.70;92.50;;;;;;5097862;28;19915;-53
2022/12/06 18:31:19;;;;;;;;;;;3.70;93.30;;;;;;5097647;28;19908;-54
2022/12/06 18:33:45;;;;;;;;;;;3.70;93.70;;;;;;5099474;28;19908;-54
2022/12/06 18:36:11;;;;;;;;;;;3.80;94.90;;;;;;5101082;28;19912;-54
2022/12/06 18:38:36;;;;;;;;;;;3.70;93.90;;;;;;5101366;28;19915;-52
2022/12/06 18:41:02;;;;;;;;;;;3.70;94.80;;;;;;5101306;28;19920;-53
2022/12/06 18:43:28;;;;;;;;;;;3.70;93.80;;;;;;5101295;28;19908;-54
2022/12/06 18:46:01;;;;;;;;;;;3.70;94.50;;;;;;5100831;28;19915;-56
2022/12/06 18:48:26;;;;;;;;;;;3.70;94.60;;;;;;5101057;28;19908;-51
2022/12/06 18:50:52;;;;;;;;;;;3.60;93.90;;;;;;5100942;28;20428;-56
2022/12/06 18:53:18;;;;;;;;;;;3.60;94.00;;;;;;5101433;28;19916;-53
2022/12/06 18:55:44;;;;;;;;;;;3.60;94.30;;;;;;5100720;28;19908;-54
2022/12/06 18:58:09;;;;;;;;;;;3.60;94.90;;;;;;5100476;28;19908;-54
2022/12/06 19:00:39;;;;;;;;;;;3.60;94.80;;;;;;5100834;28;19908;-51
2022/12/06 19:03:05;;;;;;;;;;;3.60;94.60;;;;;;5100575;28;19912;-50
2022/12/06 19:05:30;;;;;;;;;;;3.60;95.20;;;;;;5101100;28;19916;-54
2022/12/06 19:07:56;;;;;;;;;;;3.60;95.60;;;;;;5100904;28;19950;-51
2022/12/06 19:10:21;;;;;;;;;;;3.60;96.20;;;;;;5101138;28;20259;-54
2022/12/06 19:12:47;;;;;;;;;;;3.60;96.10;;;;;;5100699;28;19908;-50
2022/12/06 19:15:13;;;;;;;;;;;3.60;95.40;;;;;;5100600;28;19989;-53
2022/12/06 19:17:42;;;;;;;;;;;3.60;95.60;;;;;;5100289;28;19912;-56
2022/12/06 19:20:08;;;;;;;;;;;3.50;96.00;;;;;;5100396;28;19909;-55
2022/12/06 19:22:34;;;;;;;;;;;3.50;95.90;;;;;;5100741;28;19935;-55
2022/12/06 19:24:59;;;;;;;;;;;3.50;96.50;;;;;;5100616;28;19908;-52
2022/12/06 19:27:25;;;;;;;;;;;3.50;97.10;;;;;;5100624;28;19930;-52
2022/12/06 19:29:51;;;;;;;;;;;3.50;96.50;;;;;;5100319;28;19912;-54
2022/12/06 19:32:16;;;;;;;;;;;3.50;97.50;;;;;;5100251;28;19909;-53
2022/12/06 19:34:42;;;;;;;;;;;3.50;98.10;;;;;;5100532;28;19908;-53
2022/12/06 19:37:07;;;;;;;;;;;3.40;97.80;;;;;;5100003;28;19973;-56
2022/12/06 19:39:33;;;;;;;;;;;3.50;97.80;;;;;;5100297;28;19908;-54
2022/12/06 19:44:42;;;;;;;;;;;3.40;99.90;;;;;;5099690;28;19961;-53
2022/12/06 19:47:08;;;;;;;;;;;3.50;99.20;;;;;;5100044;28;19928;-53
2022/12/06 19:49:34;;;;;;;;;;;3.40;99.00;;;;;;5099743;28;19962;-53
2022/12/06 19:52:00;;;;;;;;;;;3.40;98.50;;;;;;5100295;28;19915;-54
2022/12/06 19:54:29;;;;;;;;;;;3.40;99.50;;;;;;5099756;28;19987;-56
2022/12/06 19:56:56;;;;;;;;;;;3.30;98.70;;;;;;5100086;28;20011;-54
2022/12/06 19:59:22;;;;;;;;;;;3.30;99.70;;;;;;5099670;28;19961;-52
2022/12/06 20:01:49;;;;;;;;;;;3.30;99.90;;;;;;5099821;28;19912;-52
2022/12/06 20:04:19;;;;;;;;;;;3.30;99.90;;;;;;5099743;28;20419;-56
2022/12/06 20:06:45;;;;;;;;;;;3.30;99.90;;;;;;5099403;28;20321;-56
2022/12/06 20:09:11;;;;;;;;;;;3.30;99.90;;;;;;5099512;28;19945;-55
2022/12/06 20:14:22;;;;;;;;;;;3.20;99.90;;;;;;5099513;28;19915;-51
2022/12/06 20:16:48;;;;;;;;;;;3.20;99.90;;;;;;5099131;28;19912;-53
2022/12/06 20:19:14;;;;;;;;;;;3.30;99.90;;;;;;5099229;28;19922;-53
2022/12/06 20:21:40;;;;;;;;;;;3.30;99.90;;;;;;5099409;28;19912;-50
2022/12/06 20:24:07;;;;;;;;;;;3.30;99.90;;;;;;5099221;28;19912;-54
2022/12/06 20:26:33;;;;;;;;;;;3.20;99.90;;;;;;5099380;28;19912;-53
2022/12/06 20:28:59;;;;;;;;;;;3.20;99.50;;;;;;5099084;28;19934;-50
2022/12/06 20:31:26;;;;;;;;;;;3.20;99.20;;;;;;5099211;28;19995;-52
2022/12/06 20:33:58;;;;;;;;;;;3.20;98.90;;;;;;5099198;28;19995;-55
2022/12/06 20:36:25;;;;;;;;;;;3.10;99.00;;;;;;5099114;28;19966;-52
2022/12/06 20:38:52;;;;;;;;;;;3.10;98.70;;;;;;5098949;28;19908;-53
2022/12/06 20:41:18;;;;;;;;;;;3.10;98.90;;;;;;5098730;28;19908;-53
2022/12/06 20:43:46;;;;;;;;;;;3.10;98.90;;;;;;5098853;28;20387;-52
2022/12/06 20:46:16;;;;;;;;;;;3.10;99.10;;;;;;5098759;28;19916;-56
2022/12/06 20:48:42;;;;;;;;;;;3.10;98.80;;;;;;5098667;28;19962;-53
2022/12/06 20:51:10;;;;;;;;;;;3.00;98.60;;;;;;5098894;28;20053;-54
2022/12/06 20:53:35;;;;;;;;;;;3.00;99.10;;;;;;5098838;28;20004;-50
2022/12/06 20:56:05;;;;;;;;;;;3.00;99.40;;;;;;5098026;28;19947;-54
2022/12/06 20:58:31;;;;;;;;;;;3.00;99.10;;;;;;5098752;28;19908;-54
2022/12/06 21:00:57;;;;;;;;;;;3.00;99.50;;;;;;5098518;28;19908;-53
2022/12/06 21:03:22;;;;;;;;;;;3.00;99.60;;;;;;5098461;28;19908;-53
2022/12/06 21:05:48;;;;;;;;;;;3.00;99.90;;;;;;5098479;28;19930;-55
2022/12/06 21:08:14;;;;;;;;;;;3.00;99.90;;;;;;5098620;28;19915;-55
2022/12/06 21:10:39;;;;;;;;;;;2.90;99.90;;;;;;5098755;28;19908;-53
2022/12/06 21:13:05;;;;;;;;;;;3.00;99.90;;;;;;5098716;28;19915;-54
2022/12/06 21:15:31;;;;;;;;;;;3.00;99.90;;;;;;5098488;28;19908;-55
2022/12/06 21:17:56;;;;;;;;;;;3.00;99.90;;;;;;5098152;28;20264;-56
2022/12/06 21:20:22;;;;;;;;;;;3.10;99.90;;;;;;5098591;28;20241;-53
2022/12/06 21:22:47;;;;;;;;;;;3.10;99.90;;;;;;5098522;28;20279;-56
2022/12/06 21:25:13;;;;;;;;;;;3.10;99.90;;;;;;5098215;28;20433;-54
2022/12/06 21:27:39;;;;;;;;;;;4.40;99.90;;;;;;5098476;28;19957;-54
2022/12/06 21:30:04;;;;;;;;;;;3.20;99.90;;;;;;5098308;28;19980;-52
2022/12/06 21:32:30;;;;;;;;;;;3.20;99.90;;;;;;5098075;28;19908;-54
2022/12/06 21:34:56;;;;;;;;;;;3.10;99.90;;;;;;5098303;28;19908;-56
2022/12/06 21:37:21;;;;;;;;;;;3.10;99.90;;;;;;5098409;28;19974;-53
2022/12/06 21:39:47;;;;;;;;;;;3.10;99.90;;;;;;5098006;28;19944;-55
2022/12/06 21:42:19;;;;;;;;;;;3.10;99.90;;;;;;5098109;28;20006;-52
2022/12/06 21:44:45;;;;;;;;;;;3.10;99.90;;;;;;5097788;28;19908;-55
2022/12/06 21:47:11;;;;;;;;;;;3.00;99.90;;;;;;5097952;28;19926;-53
2022/12/06 21:49:36;;;;;;;;;;;3.00;99.90;;;;;;5098244;28;20299;-51
2022/12/06 21:52:02;;;;;;;;;;;3.00;99.90;;;;;;5097748;28;20265;-51
2022/12/06 21:54:28;;;;;;;;;;;2.90;99.90;;;;;;5097974;28;19908;-52
2022/12/06 21:56:53;;;;;;;;;;;2.90;99.90;;;;;;5098140;28;19985;-50
2022/12/06 21:59:19;;;;;;;;;;;2.90;99.90;;;;;;5098041;28;19987;-50
2022/12/06 22:01:44;;;;;;;;;;;2.80;99.90;;;;;;5097898;28;19908;-51
2022/12/06 22:04:10;;;;;;;;;;;2.80;99.90;;;;;;5098190;28;19957;-52
2022/12/06 22:06:36;;;;;;;;;;;2.70;99.90;;;;;;5097840;28;20002;-52
2022/12/06 22:09:03;;;;;;;;;;;2.70;99.90;;;;;;5100669;28;19908;-56
2022/12/06 22:11:28;;;;;;;;;;;2.70;99.90;;;;;;5102019;28;19915;-52
2022/12/06 22:13:55;;;;;;;;;;;2.70;99.90;;;;;;5102253;28;19909;-52
2022/12/06 22:16:21;;;;;;;;;;;2.70;99.90;;;;;;5101936;28;19961;-53
2022/12/06 22:18:46;;;;;;;;;;;2.70;99.90;;;;;;5101963;28;19908;-53
2022/12/06 22:21:14;;;;;;;;;;;2.70;99.90;;;;;;5102045;28;20360;-52
2022/12/06 22:23:39;;;;;;;;;;;2.70;99.90;;;;;;5101891;28;19908;-53
2022/12/06 22:26:06;;;;;;;;;;;2.70;99.90;;;;;;5102184;28;19915;-50
2022/12/06 22:28:32;;;;;;;;;;;2.70;99.90;;;;;;5101826;28;19947;-53
2022/12/06 22:31:17;;;;;;;;;;;2.60;99.90;;;;;;5101739;28;19957;-53
2022/12/06 22:33:43;;;;;;;;;;;2.60;99.90;;;;;;5101871;28;20256;-53
2022/12/06 22:36:09;;;;;;;;;;;2.60;99.90;;;;;;5101555;28;19912;-54
2022/12/06 22:38:35;;;;;;;;;;;2.60;99.90;;;;;;5101577;28;19908;-56
2022/12/06 22:41:01;;;;;;;;;;;2.60;99.90;;;;;;5101363;28;19908;-51
2022/12/06 22:43:27;;;;;;;;;;;2.60;99.90;;;;;;5101495;28;19908;-54
2022/12/06 22:45:53;;;;;;;;;;;2.60;99.90;;;;;;5101248;28;19912;-52
2022/12/06 22:48:19;;;;;;;;;;;2.60;99.90;;;;;;5101510;28;19914;-52
2022/12/06 22:50:44;;;;;;;;;;;2.60;99.90;;;;;;5101508;28;19908;-53
2022/12/06 22:53:10;;;;;;;;;;;2.50;99.90;;;;;;5101404;28;19908;-52
2022/12/06 22:55:36;;;;;;;;;;;2.50;99.90;;;;;;5101130;28;19934;-51
2022/12/06 22:58:01;;;;;;;;;;;2.50;99.90;;;;;;5101263;28;19961;-51
2022/12/06 23:00:27;;;;;;;;;;;2.50;99.90;;;;;;5101032;28;19908;-52
2022/12/06 23:02:52;;;;;;;;;;;2.40;99.90;;;;;;5100952;28;19912;-51
2022/12/06 23:05:18;;;;;;;;;;;2.40;99.90;;;;;;5101090;28;19908;-55
2022/12/06 23:07:44;;;;;;;;;;;2.30;99.90;;;;;;5101140;28;19943;-56
2022/12/06 23:10:10;;;;;;;;;;;2.30;99.90;;;;;;5100762;28;19947;-51
2022/12/06 23:12:36;;;;;;;;;;;2.30;99.90;;;;;;5100894;28;19953;-54
2022/12/06 23:15:01;;;;;;;;;;;2.20;99.90;;;;;;5100746;28;19992;-54
2022/12/06 23:17:27;;;;;;;;;;;2.20;99.90;;;;;;5100654;28;20404;-56
2022/12/06 23:19:53;;;;;;;;;;;2.10;99.90;;;;;;5099921;28;19908;-50
2022/12/06 23:22:19;;;;;;;;;;;2.20;99.90;;;;;;5100905;28;19908;-56
2022/12/06 23:24:44;;;;;;;;;;;2.20;99.90;;;;;;5100532;28;19915;-54
2022/12/06 23:27:10;;;;;;;;;;;2.10;99.90;;;;;;5100859;28;20424;-50
2022/12/06 23:29:36;;;;;;;;;;;2.10;99.90;;;;;;5100674;28;19908;-52
2022/12/06 23:32:04;;;;;;;;;;;2.10;99.90;;;;;;5100764;28;20394;-52
2022/12/06 23:34:30;;;;;;;;;;;2.10;99.90;;;;;;5100302;28;20425;-55
2022/12/06 23:36:56;;;;;;;;;;;2.10;99.90;;;;;;5100387;28;19912;-53
2022/12/06 23:39:21;;;;;;;;;;;2.00;99.90;;;;;;5100114;28;19908;-55
2022/12/06 23:41:47;;;;;;;;;;;2.00;99.90;;;;;;5100393;28;19908;-51
2022/12/06 23:44:13;;;;;;;;;;;1.90;99.90;;;;;;5100085;28;20313;-51
2022/12/06 23:46:39;;;;;;;;;;;1.90;99.90;;;;;;5100091;28;20006;-51
2022/12/06 23:49:05;;;;;;;;;;;1.90;99.90;;;;;;5100281;28;19909;-55
2022/12/06 23:51:35;;;;;;;;;;;1.90;99.90;;;;;;5100089;28;19943;-53
2022/12/06 23:54:02;;;;;;;;;;;1.90;99.90;;;;;;5099891;28;20284;-51
2022/12/06 23:56:31;;;;;;;;;;;1.90;99.90;;;;;;5100235;28;20256;-56
2022/12/06 23:58:57;;;;;;;;;;;1.90;99.90;;;;;;5100063;28;19908;-54
